PWSweather.com
Personal Weather Stations
Station Observations
ESTFIQ
Santa Fe, Santa FeAR 3000

Santa FeSanta FeAR 3000

Lat: -31.637, Lon: -60.708

Elevation: 69

Station Type: WH-1081

http://galileo4.unl.edu.ar/estacion

Latest ConditionsUpdated 2:45:02 AM GMT-03:57 Saturday, Jan 18, 2020
Currently Today's Max Today's Min Today's Average
Temperature 70.7°F21.5°C 74.7°F23.7°C 70.7°F21.5°C 73.2°F22.9°C
Dew Point 56.2°F13.4°C 57.6°F14.2°C 56.1°F13.4°C 56.7°F13.7°C
Winds 3.1 mph E5.0 kmh E 5.4 mph -8.7 kmh - - 3.2 mph 5.1 kmh
Wind Gusts 10.7 mph17.2 kmh 10.7 mph17.2 kmh - -
Humidity 60% 60% 54% 56%
Pressure 29.94 in1013.9 mb 29.98 in1015.2 mb 29.94 in1013.9 mb -
Hour Temp Dew Point Humidity Winds Wind Gusts Pressure Precip Precip Rate Daily Precip Total
02:45 AM 70.7°F21.5°C 56.2°F13.4°C 60% 3.1 mph E5.0 kmh E 10.7 mph17.2 kmh 29.94 in1013.9 mb 0.00 in0.0 mm 0.00 in0.0 mm 0.00 in0.0 mm
02:40 AM 70.9°F21.6°C 56.3°F13.5°C 60% 3.1 mph E5.0 kmh E 8.3 mph13.4 kmh 29.94 in1013.9 mb 0.00 in0.0 mm 0.00 in0.0 mm 0.00 in0.0 mm
02:35 AM 71.1°F21.7°C 56.5°F13.6°C 60% 4.5 mph ENE7.2 kmh ENE 9.8 mph15.8 kmh 29.94 in1013.9 mb 0.00 in0.0 mm 0.00 in0.0 mm 0.00 in0.0 mm
02:30 AM 71.2°F21.8°C 56.2°F13.4°C 59% 3.1 mph E5.0 kmh E 9.8 mph15.8 kmh 29.95 in1014.2 mb 0.00 in0.0 mm 0.00 in0.0 mm 0.00 in0.0 mm
02:25 AM 71.2°F21.8°C 56.2°F13.4°C 59% 3.1 mph E5.0 kmh E 9.2 mph14.8 kmh 29.95 in1014.2 mb 0.00 in0.0 mm 0.00 in0.0 mm 0.00 in0.0 mm
02:20 AM 71.4°F21.9°C 56.4°F13.6°C 59% 3.8 mph E6.1 kmh E 8.3 mph13.4 kmh 29.95 in1014.2 mb 0.00 in0.0 mm 0.00 in0.0 mm 0.00 in0.0 mm
02:15 AM 71.4°F21.9°C 56.4°F13.6°C 59% 5.4 mph E8.7 kmh E 7.6 mph12.2 kmh 29.95 in1014.2 mb 0.00 in0.0 mm 0.00 in0.0 mm 0.00 in0.0 mm
02:10 AM 71.4°F21.9°C 56.4°F13.6°C 59% 3.1 mph E5.0 kmh E 7.6 mph12.2 kmh 29.95 in1014.2 mb 0.00 in0.0 mm 0.00 in0.0 mm 0.00 in0.0 mm
02:05 AM 71.6°F22.0°C 56.1°F13.4°C 58% 5.4 mph E8.7 kmh E 7.6 mph12.2 kmh 29.95 in1014.2 mb 0.00 in0.0 mm 0.00 in0.0 mm 0.00 in0.0 mm
02:00 AM 71.6°F22.0°C 56.1°F13.4°C 58% 3.1 mph ENE5.0 kmh ENE 9.2 mph14.8 kmh 29.95 in1014.2 mb 0.00 in0.0 mm 0.00 in0.0 mm 0.00 in0.0 mm
01:55 AM 73.2°F22.9°C 57.6°F14.2°C 58% 2.2 mph NE3.5 kmh NE 9.2 mph14.8 kmh 29.96 in1014.6 mb 0.00 in0.0 mm 0.00 in0.0 mm 0.00 in0.0 mm
01:50 AM 73.2°F22.9°C 57.1°F13.9°C 57% 3.1 mph ENE5.0 kmh ENE 9.2 mph14.8 kmh 29.96 in1014.6 mb 0.00 in0.0 mm 0.00 in0.0 mm 0.00 in0.0 mm
01:45 AM 73.4°F23.0°C 57.3°F14.1°C 57% 2.2 mph ENE3.5 kmh ENE 9.2 mph14.8 kmh 29.96 in1014.6 mb 0.00 in0.0 mm 0.00 in0.0 mm 0.00 in0.0 mm
01:40 AM 73.4°F23.0°C 57.3°F14.1°C 57% 5.4 mph NE8.7 kmh NE 9.2 mph14.8 kmh 29.96 in1014.6 mb 0.00 in0.0 mm 0.00 in0.0 mm 0.00 in0.0 mm
01:35 AM 73.4°F23.0°C 56.8°F13.8°C 56% 3.1 mph N5.0 kmh N 8.3 mph13.4 kmh 29.96 in1014.6 mb 0.00 in0.0 mm 0.00 in0.0 mm 0.00 in0.0 mm
01:30 AM 73.6°F23.1°C 56.9°F13.8°C 56% 4.5 mph N7.2 kmh N 8.3 mph13.4 kmh 29.97 in1014.9 mb 0.00 in0.0 mm 0.00 in0.0 mm 0.00 in0.0 mm
01:25 AM 73.6°F23.1°C 56.4°F13.6°C 55% 4.5 mph NE7.2 kmh NE 6.9 mph11.1 kmh 29.96 in1014.6 mb 0.00 in0.0 mm 0.00 in0.0 mm 0.00 in0.0 mm
01:20 AM 73.8°F23.2°C 56.1°F13.4°C 54% 4.5 mph ENE7.2 kmh ENE 6.9 mph11.1 kmh 29.97 in1014.9 mb 0.00 in0.0 mm 0.00 in0.0 mm 0.00 in0.0 mm
01:15 AM 73.9°F23.3°C 56.3°F13.5°C 54% 2.2 mph E3.5 kmh E 9.2 mph14.8 kmh 29.97 in1014.9 mb 0.00 in0.0 mm 0.00 in0.0 mm 0.00 in0.0 mm
01:10 AM 73.9°F23.3°C 56.3°F13.5°C 54% 4.5 mph E7.2 kmh E 9.2 mph14.8 kmh 29.96 in1014.6 mb 0.00 in0.0 mm 0.00 in0.0 mm 0.00 in0.0 mm
01:05 AM 73.9°F23.3°C 56.3°F13.5°C 54% 1.6 mph NE2.6 kmh NE 9.2 mph14.8 kmh 29.97 in1014.9 mb 0.00 in0.0 mm 0.00 in0.0 mm 0.00 in0.0 mm
01:00 AM 74.1°F23.4°C 56.4°F13.6°C 54% 2.2 mph NE3.5 kmh NE 9.2 mph14.8 kmh 29.96 in1014.6 mb 0.00 in0.0 mm 0.00 in0.0 mm 0.00 in0.0 mm
12:55 AM 74.1°F23.4°C 56.4°F13.6°C 54% 2.2 mph NE3.5 kmh NE 6.9 mph11.1 kmh 29.97 in1014.9 mb 0.00 in0.0 mm 0.00 in0.0 mm 0.00 in0.0 mm
12:50 AM 74.1°F23.4°C 57.0°F13.9°C 55% 2.2 mph NE3.5 kmh NE 6.9 mph11.1 kmh 29.97 in1014.9 mb 0.00 in0.0 mm 0.00 in0.0 mm 0.00 in0.0 mm
12:45 AM 74.3°F23.5°C 57.1°F13.9°C 55% 3.1 mph E5.0 kmh E 6.0 mph9.7 kmh 29.97 in1014.9 mb 0.00 in0.0 mm 0.00 in0.0 mm 0.00 in0.0 mm
12:40 AM 74.5°F23.6°C 57.3°F14.1°C 55% 2.2 mph E3.5 kmh E 7.6 mph12.2 kmh 29.97 in1014.9 mb 0.00 in0.0 mm 0.00 in0.0 mm 0.00 in0.0 mm
12:35 AM 74.5°F23.6°C 56.8°F13.8°C 54% 3.1 mph ENE5.0 kmh ENE 9.2 mph14.8 kmh 29.97 in1014.9 mb 0.00 in0.0 mm 0.00 in0.0 mm 0.00 in0.0 mm
12:30 AM 74.5°F23.6°C 57.3°F14.1°C 55% 2.2 mph NE3.5 kmh NE 9.2 mph14.8 kmh 29.97 in1014.9 mb 0.00 in0.0 mm 0.00 in0.0 mm 0.00 in0.0 mm
12:25 AM 74.5°F23.6°C 57.3°F14.1°C 55% 5.4 mph NE8.7 kmh NE 7.6 mph12.2 kmh 29.98 in1015.2 mb 0.00 in0.0 mm 0.00 in0.0 mm 0.00 in0.0 mm
12:20 AM 74.5°F23.6°C 56.8°F13.8°C 54% 1.6 mph E2.6 kmh E 6.0 mph9.7 kmh 29.98 in1015.2 mb 0.00 in0.0 mm 0.00 in0.0 mm 0.00 in0.0 mm
12:15 AM 74.5°F23.6°C 56.8°F13.8°C 54% 2.2 mph ENE3.5 kmh ENE 7.6 mph12.2 kmh 29.98 in1015.2 mb 0.00 in0.0 mm 0.00 in0.0 mm 0.00 in0.0 mm
12:10 AM 74.5°F23.6°C 56.8°F13.8°C 54% 2.2 mph NE3.5 kmh NE 7.6 mph12.2 kmh 29.98 in1015.2 mb 0.00 in0.0 mm 0.00 in0.0 mm 0.00 in0.0 mm
12:05 AM 74.5°F23.6°C 57.3°F14.1°C 55% 1.6 mph NE2.6 kmh NE 9.2 mph14.8 kmh 29.98 in1015.2 mb 0.00 in0.0 mm 0.00 in0.0 mm 0.00 in0.0 mm
12:00 AM 74.7°F23.7°C 57.5°F14.2°C 55% 3.8 mph NE6.1 kmh NE 9.2 mph14.8 kmh 29.98 in1015.2 mb 0.00 in0.0 mm 0.00 in0.0 mm 0.00 in0.0 mm